createdAt,value
2019-04-03T00:00:41.044Z,49.62
2019-04-03T00:01:45.502Z,49.71
2019-04-03T00:02:49.728Z,49.70
2019-04-03T00:03:53.840Z,49.68
2019-04-03T00:04:58.007Z,49.65
2019-04-03T00:06:02.239Z,49.59
2019-04-03T00:07:06.433Z,49.74
2019-04-03T00:08:10.592Z,49.93
2019-04-03T00:09:14.779Z,49.91
2019-04-03T00:10:18.947Z,49.93
2019-04-03T00:11:24.751Z,50.00
2019-04-03T00:12:28.954Z,50.19
2019-04-03T00:13:33.116Z,50.21
2019-04-03T00:14:37.544Z,50.38
2019-04-03T00:15:42.792Z,50.43
2019-04-03T00:16:47.570Z,50.49
2019-04-03T00:17:51.825Z,50.38
2019-04-03T00:18:55.991Z,50.41
2019-04-03T00:20:00.180Z,50.41
2019-04-03T00:21:04.345Z,50.29
2019-04-03T00:22:08.651Z,50.40
2019-04-03T00:23:12.899Z,50.33
2019-04-03T00:24:17.055Z,50.50
2019-04-03T00:25:22.320Z,50.32
2019-04-03T00:26:30.244Z,50.37
2019-04-03T00:27:33.461Z,50.64
2019-04-03T00:28:37.733Z,51.11
2019-04-03T00:29:41.895Z,51.49
2019-04-03T00:30:46.401Z,51.46
2019-04-03T00:31:53.053Z,51.33
2019-04-03T00:32:56.555Z,51.12
2019-04-03T00:34:00.883Z,50.89
2019-04-03T00:35:09.074Z,50.89
2019-04-03T00:36:13.328Z,50.79
2019-04-03T00:37:17.563Z,50.82
2019-04-03T00:38:23.981Z,50.82
2019-04-03T00:39:27.774Z,50.88
2019-04-03T00:40:32.212Z,50.73
2019-04-03T00:41:36.434Z,50.99
2019-04-03T00:42:40.548Z,51.32
2019-04-03T00:43:44.857Z,51.41
2019-04-03T00:44:49.004Z,51.32
2019-04-03T00:45:54.536Z,51.35
2019-04-03T00:46:59.085Z,51.40
2019-04-03T00:48:03.208Z,51.29
2019-04-03T00:49:07.441Z,51.81
2019-04-03T00:50:11.610Z,52.17
2019-04-03T00:51:15.777Z,52.39
2019-04-03T00:52:20.049Z,52.48
2019-04-03T00:53:24.352Z,52.41
2019-04-03T00:54:30.880Z,52.09
2019-04-03T00:55:34.511Z,51.92
2019-04-03T00:56:38.680Z,51.90
2019-04-03T00:57:42.847Z,51.81
2019-04-03T00:58:47.012Z,51.84
2019-04-03T00:59:51.273Z,51.68
2019-04-03T01:00:56.333Z,51.80
2019-04-03T01:02:01.054Z,51.76
2019-04-03T01:03:06.031Z,51.79
2019-04-03T01:04:10.227Z,51.65
2019-04-03T01:05:14.462Z,51.50
2019-04-03T01:06:18.625Z,51.51
2019-04-03T01:07:22.860Z,51.40
2019-04-03T01:08:29.061Z,51.17
2019-04-03T01:09:32.931Z,51.20
2019-04-03T01:10:37.171Z,51.28
2019-04-03T01:11:41.335Z,51.25
2019-04-03T01:12:45.506Z,51.43
2019-04-03T01:13:50.097Z,51.22
2019-04-03T01:14:54.294Z,51.17
2019-04-03T01:15:58.460Z,51.44
2019-04-03T01:17:04.414Z,51.69
2019-04-03T01:18:08.918Z,51.65
2019-04-03T01:19:13.083Z,51.71
2019-04-03T01:20:17.252Z,51.46
2019-04-03T01:21:21.420Z,51.47
2019-04-03T01:22:26.085Z,51.20
2019-04-03T01:23:30.417Z,51.21
2019-04-03T01:24:34.681Z,51.27
2019-04-03T01:25:39.692Z,51.15
2019-04-03T01:26:44.405Z,51.46
2019-04-03T01:27:48.613Z,51.78
2019-04-03T01:28:52.851Z,52.15
2019-04-03T01:29:57.100Z,52.32
2019-04-03T01:31:01.260Z,52.31
2019-04-03T01:32:05.834Z,52.50
2019-04-03T01:33:10.072Z,52.46
2019-04-03T01:34:15.646Z,52.81
2019-04-03T01:35:20.205Z,52.80
2019-04-03T01:36:24.435Z,52.89
2019-04-03T01:37:28.656Z,53.03
2019-04-03T01:38:32.947Z,52.95
2019-04-03T01:39:37.187Z,53.19
2019-04-03T01:40:41.351Z,53.04
2019-04-03T01:41:45.812Z,53.23
2019-04-03T01:42:52.252Z,53.25
2019-04-03T01:43:55.952Z,53.28
2019-04-03T01:45:00.115Z,53.38
2019-04-03T01:46:04.978Z,53.22
2019-04-03T01:47:09.232Z,53.10
2019-04-03T01:48:15.921Z,52.95
2019-04-03T01:49:20.147Z,52.90
2019-04-03T01:50:24.540Z,52.67
2019-04-03T01:51:29.705Z,52.58
2019-04-03T01:52:35.688Z,52.36
2019-04-03T01:53:39.854Z,52.39
2019-04-03T01:54:45.813Z,52.54
2019-04-03T01:55:50.096Z,52.63
2019-04-03T01:56:54.623Z,52.48
2019-04-03T01:57:58.889Z,52.58
2019-04-03T01:59:06.096Z,52.78
2019-04-03T02:00:09.556Z,53.03
2019-04-03T02:01:13.797Z,53.23
2019-04-03T02:02:17.961Z,53.37
2019-04-03T02:03:22.265Z,53.49
2019-04-03T02:04:26.497Z,53.61
2019-04-03T02:05:30.671Z,53.62
2019-04-03T02:06:34.913Z,53.61
2019-04-03T02:07:39.078Z,53.89
2019-04-03T02:08:44.861Z,53.94
2019-04-03T02:09:49.774Z,53.81
2019-04-03T02:10:54.048Z,53.67
2019-04-03T02:11:58.467Z,53.74
2019-04-03T02:13:02.652Z,53.81
2019-04-03T02:14:07.017Z,54.03
2019-04-03T02:15:11.190Z,53.80
2019-04-03T02:16:15.950Z,53.94
2019-04-03T02:17:20.157Z,53.65
2019-04-03T02:18:25.468Z,53.27
2019-04-03T02:19:31.091Z,52.93
2019-04-03T02:20:35.417Z,52.83
2019-04-03T02:21:39.645Z,52.68
2019-04-03T02:22:43.876Z,52.44
2019-04-03T02:23:48.043Z,52.36
2019-04-03T02:24:52.683Z,52.19
2019-04-03T02:25:56.852Z,52.05
2019-04-03T02:27:03.166Z,51.86
2019-04-03T02:28:07.026Z,51.88
2019-04-03T02:29:11.455Z,51.65
2019-04-03T02:30:15.682Z,51.51
2019-04-03T02:31:20.497Z,51.42
2019-04-03T02:32:24.937Z,51.31
2019-04-03T02:33:29.607Z,51.22
2019-04-03T02:34:35.631Z,51.20
2019-04-03T02:35:40.591Z,51.30
2019-04-03T02:36:45.651Z,51.23
2019-04-03T02:37:50.744Z,51.11
2019-04-03T02:38:55.050Z,51.28
2019-04-03T02:40:00.469Z,51.60
2019-04-03T02:41:05.499Z,51.83
2019-04-03T02:42:10.534Z,51.96
2019-04-03T02:43:15.534Z,52.06
2019-04-03T02:44:20.151Z,52.34
2019-04-03T02:45:25.033Z,52.41
2019-04-03T02:46:29.830Z,52.64
2019-04-03T02:47:34.696Z,52.57
2019-04-03T02:48:39.101Z,52.46
2019-04-03T02:49:43.900Z,52.40
2019-04-03T02:50:48.583Z,52.88
2019-04-03T02:51:53.951Z,53.12
2019-04-03T02:52:59.115Z,53.12
2019-04-03T02:54:04.250Z,52.96
2019-04-03T02:55:08.879Z,52.90
2019-04-03T02:56:13.907Z,53.18
2019-04-03T02:57:18.519Z,52.83
2019-04-03T02:58:23.439Z,52.97
2019-04-03T02:59:27.751Z,52.98
2019-04-03T03:00:33.595Z,53.15
2019-04-03T03:01:39.755Z,53.57
2019-04-03T03:02:45.380Z,53.98
2019-04-03T03:03:50.273Z,53.97
2019-04-03T03:04:55.697Z,54.29
2019-04-03T03:06:01.305Z,54.92
2019-04-03T03:07:05.691Z,55.31
2019-04-03T03:08:10.221Z,55.17
2019-04-03T03:09:14.583Z,55.38
2019-04-03T03:10:20.367Z,55.57
2019-04-03T03:11:25.209Z,55.74
2019-04-03T03:12:30.327Z,55.80
2019-04-03T03:13:35.828Z,55.47
2019-04-03T03:14:40.972Z,55.28
2019-04-03T03:15:45.556Z,55.20
2019-04-03T03:16:50.852Z,54.76
2019-04-03T03:17:56.356Z,54.58
2019-04-03T03:19:01.887Z,54.58
2019-04-03T03:20:07.843Z,54.48
2019-04-03T03:21:13.834Z,54.23
2019-04-03T03:22:18.909Z,53.98
2019-04-03T03:23:24.285Z,53.78
2019-04-03T03:24:30.127Z,53.82
2019-04-03T03:25:34.464Z,53.77
2019-04-03T03:26:38.615Z,53.62
2019-04-03T03:27:43.294Z,53.65
2019-04-03T03:28:48.228Z,53.71
2019-04-03T03:29:52.347Z,53.58
2019-04-03T03:31:01.999Z,53.49
2019-04-03T03:32:12.602Z,53.11
2019-04-03T03:33:26.985Z,53.23
2019-04-03T03:34:15.512Z,53.17
2019-04-03T03:35:28.529Z,53.08
2019-04-03T03:36:26.877Z,53.07
2019-04-03T03:37:34.425Z,52.89
2019-04-03T03:38:39.756Z,52.75
2019-04-03T03:39:44.539Z,52.72
2019-04-03T03:40:50.219Z,52.54
2019-04-03T03:41:58.073Z,52.42
2019-04-03T03:43:05.077Z,52.29
2019-04-03T03:44:10.523Z,52.21
2019-04-03T03:45:15.811Z,52.09
2019-04-03T03:46:19.415Z,52.10
2019-04-03T03:47:23.657Z,52.20
2019-04-03T03:48:27.921Z,52.20
2019-04-03T03:49:32.090Z,52.15
2019-04-03T03:50:36.896Z,52.26
2019-04-03T03:51:41.441Z,52.08
2019-04-03T03:52:45.645Z,52.19
2019-04-03T03:53:49.911Z,52.17
2019-04-03T03:54:54.079Z,52.14
2019-04-03T03:56:01.864Z,52.13
2019-04-03T03:57:07.367Z,51.95
2019-04-03T03:58:13.363Z,52.05
2019-04-03T03:59:18.494Z,51.97
2019-04-03T04:00:24.362Z,52.10
2019-04-03T04:01:31.792Z,52.18
2019-04-03T04:02:36.789Z,52.07
2019-04-03T04:03:42.182Z,52.00
2019-04-03T04:04:48.632Z,52.04
2019-04-03T04:05:55.687Z,52.18
2019-04-03T04:07:02.011Z,52.23
2019-04-03T04:08:10.633Z,52.50
2019-04-03T04:09:15.638Z,52.40
2019-04-03T04:10:18.585Z,52.55
2019-04-03T04:11:22.740Z,52.45
2019-04-03T04:12:27.070Z,52.41
2019-04-03T04:13:31.229Z,52.58
2019-04-03T04:14:35.995Z,53.15
2019-04-03T04:15:40.226Z,53.51
2019-04-03T04:16:44.411Z,53.83
2019-04-03T04:17:51.127Z,53.79
2019-04-03T04:18:57.366Z,54.53
2019-04-03T04:20:05.170Z,54.99
2019-04-03T04:21:09.451Z,54.85
2019-04-03T04:22:15.448Z,54.78
2019-04-03T04:23:22.989Z,54.87
2019-04-03T04:24:27.629Z,54.61
2019-04-03T04:25:31.112Z,54.95
2019-04-03T04:26:35.661Z,54.98
2019-04-03T04:27:39.860Z,54.86
2019-04-03T04:28:44.130Z,55.24
2019-04-03T04:29:48.257Z,55.12
2019-04-03T04:30:52.467Z,55.33
2019-04-03T04:31:56.902Z,55.28
2019-04-03T04:33:01.082Z,55.84
2019-04-03T04:34:05.364Z,56.12
2019-04-03T04:35:10.910Z,56.72
2019-04-03T04:36:15.428Z,57.12
2019-04-03T04:37:19.668Z,56.74
2019-04-03T04:38:26.183Z,57.03
2019-04-03T04:39:29.807Z,57.31
2019-04-03T04:40:34.054Z,57.11
2019-04-03T04:41:38.226Z,56.93
2019-04-03T04:42:42.799Z,57.70
2019-04-03T04:43:47.007Z,57.26
2019-04-03T04:44:51.337Z,57.03
2019-04-03T04:45:55.454Z,57.59
2019-04-03T04:46:59.619Z,57.60
2019-04-03T04:48:04.123Z,57.41
2019-04-03T04:49:08.365Z,58.05
2019-04-03T04:50:12.803Z,58.40
2019-04-03T04:51:16.965Z,58.88
2019-04-03T04:52:21.244Z,58.71
2019-04-03T04:53:25.403Z,59.14
2019-04-03T04:54:30.629Z,58.89
2019-04-03T04:55:35.983Z,59.39
2019-04-03T04:56:41.138Z,60.30
2019-04-03T04:57:45.324Z,60.16
2019-04-03T04:58:52.235Z,60.04
2019-04-03T04:59:56.456Z,59.45
2019-04-03T05:01:00.997Z,59.59
2019-04-03T05:02:05.239Z,59.19
2019-04-03T05:03:09.408Z,59.65
2019-04-03T05:04:15.364Z,59.53
2019-04-03T05:05:19.660Z,59.48
2019-04-03T05:06:23.921Z,59.71
2019-04-03T05:07:30.318Z,59.37
2019-04-03T05:08:34.027Z,59.45
2019-04-03T05:09:38.806Z,59.92
2019-04-03T05:10:44.030Z,60.22
2019-04-03T05:11:48.238Z,60.03
2019-04-03T05:12:52.477Z,60.40
2019-04-03T05:13:56.712Z,59.99
2019-04-03T05:15:00.884Z,59.86
2019-04-03T05:16:05.188Z,60.53
2019-04-03T05:17:09.393Z,60.30
2019-04-03T05:18:13.559Z,59.91
2019-04-03T05:19:19.826Z,60.27
2019-04-03T05:20:24.116Z,60.50
2019-04-03T05:21:28.397Z,60.21
2019-04-03T05:22:33.784Z,60.30
2019-04-03T05:23:38.003Z,60.35
2019-04-03T05:24:42.185Z,60.68
2019-04-03T05:25:46.481Z,60.38
2019-04-03T05:26:50.898Z,60.65
2019-04-03T05:27:55.247Z,60.48
2019-04-03T05:28:59.419Z,60.47
2019-04-03T05:30:06.084Z,60.37
2019-04-03T05:31:10.239Z,60.61
2019-04-03T05:32:14.414Z,60.61
2019-04-03T05:33:18.633Z,60.60
2019-04-03T05:34:22.800Z,60.37
2019-04-03T05:35:26.963Z,60.82
2019-04-03T05:36:31.130Z,60.96
2019-04-03T05:37:35.306Z,60.90
2019-04-03T05:38:39.706Z,60.96
2019-04-03T05:39:43.835Z,60.98
2019-04-03T05:40:48.084Z,60.65
2019-04-03T05:41:52.491Z,60.79
2019-04-03T05:42:58.090Z,60.67
2019-04-03T05:44:03.286Z,60.69
2019-04-03T05:45:07.949Z,61.01
2019-04-03T05:46:12.484Z,60.80
2019-04-03T05:47:16.615Z,60.78
2019-04-03T05:48:20.781Z,60.82
2019-04-03T05:49:24.980Z,60.92
2019-04-03T05:50:30.763Z,60.92
2019-04-03T05:51:35.044Z,60.91
2019-04-03T05:52:39.221Z,60.80
2019-04-03T05:53:43.429Z,61.14
2019-04-03T05:54:47.759Z,61.35
2019-04-03T05:55:52.033Z,61.53
2019-04-03T05:56:56.428Z,61.28
2019-04-03T05:58:00.847Z,61.50
2019-04-03T05:59:04.989Z,61.67
2019-04-03T06:00:09.190Z,61.49
2019-04-03T06:01:13.465Z,61.39
2019-04-03T06:02:20.418Z,61.74
2019-04-03T06:03:37.686Z,61.97
2019-04-03T06:04:29.404Z,62.11
2019-04-03T06:05:34.875Z,62.15
2019-04-03T06:06:38.953Z,61.96
2019-04-03T06:07:43.141Z,61.81
2019-04-03T06:08:47.468Z,61.59
2019-04-03T06:09:51.904Z,61.76
2019-04-03T06:10:57.489Z,61.72
2019-04-03T06:12:01.654Z,62.06
2019-04-03T06:13:06.315Z,61.96
2019-04-03T06:14:10.628Z,62.33
2019-04-03T06:15:14.809Z,62.46
2019-04-03T06:16:19.081Z,62.55
2019-04-03T06:17:23.518Z,62.73
2019-04-03T06:18:29.764Z,62.68
2019-04-03T06:19:35.468Z,62.60
2019-04-03T06:20:39.784Z,63.18
2019-04-03T06:21:46.240Z,63.04
2019-04-03T06:22:51.070Z,63.38
2019-04-03T06:23:56.460Z,63.34
2019-04-03T06:25:00.624Z,63.18
2019-04-03T06:26:05.047Z,63.31
2019-04-03T06:27:10.364Z,63.55
2019-04-03T06:28:14.797Z,63.72
2019-04-03T06:29:19.658Z,63.98
2019-04-03T06:30:24.996Z,64.30
2019-04-03T06:31:29.960Z,64.32
2019-04-03T06:32:34.301Z,64.31
2019-04-03T06:33:38.460Z,63.98
2019-04-03T06:34:44.547Z,63.75
2019-04-03T06:35:48.786Z,63.61
2019-04-03T06:36:52.967Z,63.79
2019-04-03T06:37:57.195Z,63.89
2019-04-03T06:39:01.484Z,63.87
2019-04-03T06:40:09.008Z,64.08
2019-04-03T06:41:13.174Z,64.10
2019-04-03T06:42:17.447Z,64.39
2019-04-03T06:43:21.649Z,64.83
2019-04-03T06:44:26.205Z,64.68
2019-04-03T06:45:30.363Z,64.93
2019-04-03T06:46:34.614Z,64.93
2019-04-03T06:47:39.007Z,64.83
2019-04-03T06:48:43.180Z,64.92
2019-04-03T06:49:48.823Z,64.78
2019-04-03T06:50:52.989Z,64.57
2019-04-03T06:51:57.156Z,64.34
2019-04-03T06:53:01.348Z,64.50
2019-04-03T06:54:08.963Z,64.75
2019-04-03T06:55:13.127Z,64.58
2019-04-03T06:56:18.172Z,64.58
2019-04-03T06:57:22.364Z,64.78
2019-04-03T06:58:36.937Z,65.12
2019-04-03T06:59:32.663Z,64.82
2019-04-03T07:00:36.840Z,65.30
2019-04-03T07:01:41.055Z,65.29
2019-04-03T07:02:45.222Z,65.64
2019-04-03T07:03:49.434Z,65.44
2019-04-03T07:04:53.598Z,65.39
2019-04-03T07:05:57.832Z,65.47
2019-04-03T07:07:02.228Z,65.26
2019-04-03T07:08:06.448Z,65.44
2019-04-03T07:09:21.679Z,65.39
2019-04-03T07:10:25.085Z,65.76
2019-04-03T07:11:24.044Z,66.05
2019-04-03T07:12:29.447Z,66.55
2019-04-03T07:13:33.601Z,66.52
2019-04-03T07:14:37.781Z,66.72
2019-04-03T07:15:42.017Z,66.83
2019-04-03T07:16:46.263Z,67.29
2019-04-03T07:17:51.649Z,67.58
2019-04-03T07:18:55.836Z,68.16
2019-04-03T07:20:12.519Z,68.28
2019-04-03T07:21:06.185Z,68.21
2019-04-03T07:22:11.463Z,68.13
2019-04-03T07:23:15.684Z,68.22
2019-04-03T07:24:20.168Z,68.49
2019-04-03T07:25:24.799Z,68.37
2019-04-03T07:26:28.953Z,68.59
2019-04-03T07:27:34.874Z,68.89
2019-04-03T07:28:41.633Z,68.84
2019-04-03T07:29:45.054Z,68.58
2019-04-03T07:30:52.360Z,68.10
2019-04-03T07:31:55.723Z,68.17
2019-04-03T07:33:00.078Z,68.10
2019-04-03T07:34:04.260Z,68.07
2019-04-03T07:35:10.110Z,68.09
2019-04-03T07:36:14.413Z,68.36
2019-04-03T07:37:20.038Z,68.46
2019-04-03T07:38:24.650Z,68.45
2019-04-03T07:39:28.855Z,69.10
2019-04-03T07:40:33.278Z,69.31
2019-04-03T07:41:40.430Z,69.31
2019-04-03T07:42:43.779Z,69.04
2019-04-03T07:43:48.344Z,69.17
2019-04-03T07:44:52.538Z,68.77
2019-04-03T07:45:56.677Z,69.20
2019-04-03T07:47:03.347Z,69.64
2019-04-03T07:48:07.097Z,69.70
2019-04-03T07:49:13.798Z,70.42
2019-04-03T07:50:17.299Z,70.45
2019-04-03T07:51:21.538Z,70.56
2019-04-03T07:52:25.934Z,70.93
2019-04-03T07:53:30.138Z,71.15
2019-04-03T07:54:34.304Z,70.91
2019-04-03T07:55:38.476Z,70.83
2019-04-03T07:56:43.164Z,70.57
2019-04-03T07:57:47.640Z,70.89
2019-04-03T07:58:51.861Z,70.77
2019-04-03T07:59:56.112Z,71.47
2019-04-03T08:01:00.263Z,71.76
2019-04-03T08:02:05.332Z,71.27
2019-04-03T08:03:09.535Z,71.31
2019-04-03T08:04:15.838Z,70.35
2019-04-03T08:05:22.294Z,67.93
2019-04-03T08:06:26.746Z,65.67
2019-04-03T08:07:30.873Z,65.09
2019-04-03T08:08:35.875Z,63.68
2019-04-03T08:09:40.186Z,63.51
2019-04-03T08:10:44.828Z,62.99
2019-04-03T08:11:49.203Z,62.81
2019-04-03T08:12:53.374Z,63.04
2019-04-03T08:13:57.839Z,62.83
2019-04-03T08:15:02.036Z,62.47
2019-04-03T08:16:06.194Z,61.26
2019-04-03T08:17:10.367Z,60.33
2019-04-03T08:18:14.532Z,60.51
2019-04-03T08:19:18.813Z,59.74
2019-04-03T08:20:24.031Z,59.56
2019-04-03T08:21:30.481Z,59.31
2019-04-03T08:22:35.856Z,59.41
2019-04-03T08:23:42.915Z,59.55
2019-04-03T08:24:47.560Z,59.19
2019-04-03T08:25:57.330Z,58.97
2019-04-03T08:27:00.374Z,58.61
2019-04-03T08:28:05.233Z,58.38
2019-04-03T08:29:09.383Z,58.48
2019-04-03T08:30:13.923Z,57.96
2019-04-03T08:31:19.775Z,58.43
2019-04-03T08:32:24.209Z,58.12
2019-04-03T08:33:28.388Z,57.85
2019-04-03T08:34:38.255Z,57.72
2019-04-03T08:35:43.127Z,57.97
2019-04-03T08:36:47.529Z,57.62
2019-04-03T08:37:51.678Z,57.78
2019-04-03T08:38:55.871Z,57.59
2019-04-03T08:40:00.036Z,57.67
2019-04-03T08:41:04.812Z,57.78
2019-04-03T08:42:09.207Z,57.64
2019-04-03T08:43:13.455Z,57.84
2019-04-03T08:44:18.239Z,58.08
2019-04-03T08:45:23.771Z,57.99
2019-04-03T08:46:27.951Z,58.02
2019-04-03T08:47:32.288Z,58.25
2019-04-03T08:48:36.448Z,57.79
2019-04-03T08:49:40.957Z,58.27
2019-04-03T08:50:45.157Z,58.50
2019-04-03T08:51:49.327Z,58.88
2019-04-03T08:52:53.519Z,58.66
2019-04-03T08:53:58.299Z,58.50
2019-04-03T08:55:06.645Z,58.36
2019-04-03T08:56:10.920Z,58.36
2019-04-03T08:57:15.046Z,58.18
2019-04-03T08:58:20.969Z,57.90
2019-04-03T08:59:28.777Z,57.93
2019-04-03T09:00:34.950Z,57.95
2019-04-03T09:01:39.412Z,57.52
2019-04-03T09:02:44.115Z,57.36
2019-04-03T09:03:48.779Z,57.66
2019-04-03T09:04:53.031Z,57.66
2019-04-03T09:05:57.423Z,57.45
2019-04-03T09:07:06.511Z,57.58
2019-04-03T09:08:10.828Z,57.91
2019-04-03T09:09:15.044Z,58.17
2019-04-03T09:10:19.492Z,58.28
2019-04-03T09:11:23.677Z,58.31
2019-04-03T09:12:28.109Z,58.39
2019-04-03T09:13:32.411Z,58.77
2019-04-03T09:14:36.537Z,59.23
2019-04-03T09:15:40.773Z,58.90
2019-04-03T09:16:44.939Z,58.87
2019-04-03T09:17:49.160Z,58.79
2019-04-03T09:18:53.550Z,58.91
2019-04-03T09:19:57.764Z,59.15
2019-04-03T09:21:01.939Z,59.24
2019-04-03T09:22:06.346Z,59.52
2019-04-03T09:23:11.513Z,59.61
2019-04-03T09:24:15.878Z,59.47
2019-04-03T09:25:20.499Z,59.64
2019-04-03T09:26:24.804Z,59.70
2019-04-03T09:27:28.972Z,59.32
2019-04-03T09:28:33.286Z,59.61
2019-04-03T09:29:37.473Z,59.69
2019-04-03T09:30:41.704Z,59.75
2019-04-03T09:31:46.227Z,59.74
2019-04-03T09:32:53.750Z,60.12
2019-04-03T09:33:58.642Z,59.79
2019-04-03T09:35:02.971Z,59.43
2019-04-03T09:36:07.138Z,59.45
2019-04-03T09:37:11.349Z,59.52
2019-04-03T09:38:15.659Z,59.43
2019-04-03T09:39:21.734Z,59.79
2019-04-03T09:40:25.896Z,60.04
2019-04-03T09:41:30.177Z,59.59
2019-04-03T09:42:34.387Z,59.64
2019-04-03T09:43:39.922Z,59.32
2019-04-03T09:44:44.315Z,59.69
2019-04-03T09:45:48.550Z,59.95
2019-04-03T09:46:53.097Z,60.05
2019-04-03T09:47:57.257Z,60.21
2019-04-03T09:49:01.428Z,59.90
2019-04-03T09:50:07.574Z,59.30
2019-04-03T09:51:12.081Z,58.89
2019-04-03T09:52:16.572Z,58.66
2019-04-03T09:53:20.737Z,58.23
2019-04-03T09:54:28.789Z,58.26
2019-04-03T09:55:36.242Z,58.43
2019-04-03T09:56:54.907Z,58.49
2019-04-03T09:57:44.831Z,58.41
2019-04-03T09:58:49.499Z,58.34
2019-04-03T09:59:54.994Z,58.45
2019-04-03T10:00:59.100Z,58.77
2019-04-03T10:02:05.948Z,59.21
2019-04-03T10:03:10.112Z,59.35
2019-04-03T10:04:14.664Z,59.47
2019-04-03T10:05:18.816Z,59.32
2019-04-03T10:06:24.287Z,59.17
2019-04-03T10:07:30.973Z,59.29
2019-04-03T10:08:34.383Z,59.22
2019-04-03T10:09:39.192Z,59.22
2019-04-03T10:10:44.968Z,59.17
2019-04-03T10:11:51.538Z,59.40
2019-04-03T10:12:55.368Z,59.31
2019-04-03T10:13:59.561Z,59.05
2019-04-03T10:15:09.027Z,59.30
2019-04-03T10:16:16.135Z,58.71
2019-04-03T10:17:21.556Z,58.55
2019-04-03T10:18:28.653Z,58.60
2019-04-03T10:19:34.574Z,58.72
2019-04-03T10:20:38.775Z,58.77
2019-04-03T10:21:43.095Z,58.48
2019-04-03T10:22:47.403Z,58.75
2019-04-03T10:23:51.547Z,58.78
2019-04-03T10:24:59.403Z,58.44
2019-04-03T10:26:02.596Z,58.20
2019-04-03T10:27:07.152Z,58.05
2019-04-03T10:28:13.658Z,57.81
2019-04-03T10:29:19.664Z,57.89
2019-04-03T10:30:24.336Z,57.64
2019-04-03T10:31:28.508Z,57.64
2019-04-03T10:32:32.696Z,57.57
2019-04-03T10:33:36.862Z,57.19
2019-04-03T10:34:43.657Z,57.48
2019-04-03T10:35:47.939Z,57.39
2019-04-03T10:36:52.105Z,56.71
2019-04-03T10:37:56.384Z,56.62
2019-04-03T10:39:00.593Z,56.87
2019-04-03T10:40:08.032Z,57.01
2019-04-03T10:41:12.252Z,56.87
2019-04-03T10:42:16.505Z,57.17
2019-04-03T10:43:21.026Z,57.02
2019-04-03T10:44:25.304Z,56.61
2019-04-03T10:45:29.434Z,56.49
2019-04-03T10:46:33.779Z,56.90
2019-04-03T10:47:42.378Z,57.07
2019-04-03T10:48:43.822Z,56.45
2019-04-03T10:49:48.335Z,56.45
2019-04-03T10:50:52.448Z,56.77
2019-04-03T10:51:56.793Z,56.92
2019-04-03T10:53:01.153Z,56.66
2019-04-03T10:54:05.294Z,56.65
2019-04-03T10:55:09.545Z,56.78
2019-04-03T10:56:13.713Z,56.10
2019-04-03T10:57:18.001Z,55.97
2019-04-03T10:58:22.219Z,56.56
2019-04-03T10:59:26.960Z,56.52
2019-04-03T11:00:31.283Z,56.23
2019-04-03T11:01:35.711Z,55.40
2019-04-03T11:02:40.185Z,55.34
2019-04-03T11:03:44.327Z,55.12
2019-04-03T11:04:48.601Z,55.16
2019-04-03T11:05:52.983Z,55.34
2019-04-03T11:06:57.220Z,55.38
2019-04-03T11:08:01.579Z,55.29
2019-04-03T11:09:07.718Z,55.85
2019-04-03T11:10:11.989Z,56.61
2019-04-03T11:11:16.263Z,55.63
2019-04-03T11:12:20.506Z,55.46
2019-04-03T11:13:24.867Z,55.76
2019-04-03T11:14:29.276Z,55.79
2019-04-03T11:15:33.672Z,55.80
2019-04-03T11:16:39.153Z,56.01
2019-04-03T11:17:43.673Z,55.60
2019-04-03T11:18:58.030Z,55.71
2019-04-03T11:19:53.934Z,55.73
2019-04-03T11:20:58.383Z,55.39
2019-04-03T11:22:02.949Z,55.40
2019-04-03T11:23:08.601Z,55.34
2019-04-03T11:24:13.425Z,55.43
2019-04-03T11:25:17.562Z,55.29
2019-04-03T11:26:24.017Z,55.41
2019-04-03T11:27:40.875Z,55.10
2019-04-03T11:28:36.980Z,54.92
2019-04-03T11:29:41.900Z,55.04
2019-04-03T11:30:45.251Z,55.05
2019-04-03T11:31:49.620Z,54.92
2019-04-03T11:32:53.920Z,54.94
2019-04-03T11:33:58.414Z,54.92
2019-04-03T11:35:02.880Z,54.47
2019-04-03T11:36:07.039Z,55.15
2019-04-03T11:37:11.195Z,55.21
2019-04-03T11:38:25.707Z,55.13
2019-04-03T11:39:22.046Z,55.15
2019-04-03T11:40:26.175Z,55.09
2019-04-03T11:41:30.418Z,54.71
2019-04-03T11:42:34.654Z,55.13
2019-04-03T11:43:40.823Z,55.25
2019-04-03T11:44:45.179Z,54.83
2019-04-03T11:45:49.634Z,54.38
2019-04-03T11:46:53.783Z,54.07
2019-04-03T11:47:57.949Z,54.00
2019-04-03T11:49:03.755Z,54.64
2019-04-03T11:50:08.461Z,54.74
2019-04-03T11:51:13.062Z,53.68
2019-04-03T11:52:17.396Z,53.89
2019-04-03T11:53:21.663Z,54.30
2019-04-03T11:54:26.037Z,54.24
2019-04-03T11:55:31.036Z,54.86
2019-04-03T11:56:35.181Z,55.36
2019-04-03T11:57:39.352Z,54.85
2019-04-03T11:58:43.602Z,55.17
2019-04-03T11:59:47.901Z,55.02
2019-04-03T12:00:53.225Z,54.76
2019-04-03T12:01:57.639Z,54.48
2019-04-03T12:03:02.529Z,55.19
2019-04-03T12:04:07.009Z,55.57
2019-04-03T12:05:14.748Z,55.36
2019-04-03T12:06:19.678Z,54.70
2019-04-03T12:07:25.110Z,54.43
2019-04-03T12:08:29.482Z,54.45
2019-04-03T12:09:33.757Z,54.65
2019-04-03T12:10:38.125Z,54.64
2019-04-03T12:11:42.303Z,54.82
2019-04-03T12:12:49.258Z,54.79
2019-04-03T12:13:53.473Z,54.56
2019-04-03T12:14:57.640Z,54.01
2019-04-03T12:16:02.095Z,53.73
2019-04-03T12:17:06.257Z,54.27
2019-04-03T12:18:10.804Z,54.58
2019-04-03T12:19:17.717Z,54.58
2019-04-03T12:20:21.881Z,54.26
2019-04-03T12:21:28.006Z,54.17
2019-04-03T12:22:32.370Z,54.00
2019-04-03T12:23:39.174Z,53.23
2019-04-03T12:24:42.754Z,53.52
2019-04-03T12:25:47.171Z,54.15
2019-04-03T12:26:52.540Z,54.27
2019-04-03T12:27:57.287Z,53.84
2019-04-03T12:29:01.548Z,54.06
2019-04-03T12:30:08.040Z,54.25
2019-04-03T12:31:12.229Z,54.46
2019-04-03T12:32:16.607Z,54.55
2019-04-03T12:33:21.749Z,54.22
2019-04-03T12:34:26.155Z,52.60
2019-04-03T12:35:30.327Z,53.55
2019-04-03T12:36:34.785Z,54.04
2019-04-03T12:37:39.307Z,54.36
2019-04-03T12:38:43.563Z,54.92
2019-04-03T12:39:47.732Z,55.34
2019-04-03T12:40:51.898Z,55.50
2019-04-03T12:41:56.159Z,54.89
2019-04-03T12:43:00.662Z,54.77
2019-04-03T12:44:04.831Z,55.03
2019-04-03T12:45:09.527Z,55.28
2019-04-03T12:46:14.195Z,54.22
2019-04-03T12:47:18.531Z,54.51
2019-04-03T12:48:22.702Z,54.43
2019-04-03T12:49:26.942Z,54.17
2019-04-03T12:50:31.225Z,54.17
2019-04-03T12:51:35.405Z,54.94
2019-04-03T12:52:39.773Z,55.09
2019-04-03T12:53:43.916Z,55.12
2019-04-03T12:54:54.699Z,55.03
2019-04-03T12:55:58.924Z,55.02
2019-04-03T12:57:05.893Z,54.91
2019-04-03T12:58:10.081Z,54.27
2019-04-03T12:59:14.401Z,53.72
2019-04-03T13:00:20.409Z,53.81
2019-04-03T13:01:24.665Z,54.39
2019-04-03T13:02:28.939Z,54.61
2019-04-03T13:03:36.221Z,54.06
2019-04-03T13:04:39.016Z,54.71
2019-04-03T13:05:43.184Z,53.80
2019-04-03T13:06:47.721Z,53.94
2019-04-03T13:07:51.839Z,54.12
2019-04-03T13:08:56.037Z,54.62
2019-04-03T13:10:01.814Z,54.16
2019-04-03T13:11:07.493Z,54.44
2019-04-03T13:12:11.948Z,54.72
2019-04-03T13:13:16.267Z,54.58
2019-04-03T13:14:25.158Z,54.25
2019-04-03T13:15:26.309Z,54.30
2019-04-03T13:16:30.976Z,54.14
2019-04-03T13:17:35.213Z,53.32
2019-04-03T13:18:39.375Z,53.55
2019-04-03T13:19:43.543Z,53.87
2019-04-03T13:20:47.782Z,53.32
2019-04-03T13:21:52.080Z,53.51
2019-04-03T13:22:56.245Z,53.29
2019-04-03T13:24:00.867Z,53.34
2019-04-03T13:25:06.768Z,52.74
2019-04-03T13:26:11.292Z,52.63
2019-04-03T13:27:15.584Z,53.63
2019-04-03T13:28:19.792Z,53.95
2019-04-03T13:29:23.961Z,53.85
2019-04-03T13:30:28.133Z,53.83
2019-04-03T13:31:32.374Z,53.42
2019-04-03T13:32:36.581Z,53.48
2019-04-03T13:33:40.942Z,53.39
2019-04-03T13:34:45.166Z,53.15
2019-04-03T13:35:49.610Z,53.37
2019-04-03T13:36:54.138Z,53.46
2019-04-03T13:37:58.368Z,53.27
2019-04-03T13:39:04.305Z,53.33
2019-04-03T13:40:09.325Z,53.57
2019-04-03T13:41:13.521Z,53.31
2019-04-03T13:42:17.725Z,53.41
2019-04-03T13:43:22.628Z,53.47
2019-04-03T13:44:28.121Z,53.75
2019-04-03T13:45:32.711Z,53.40
2019-04-03T13:46:37.480Z,53.13
2019-04-03T13:47:43.547Z,53.91
2019-04-03T13:48:47.653Z,54.08
2019-04-03T13:49:52.070Z,54.20
2019-04-03T13:50:57.419Z,53.89
2019-04-03T13:52:07.163Z,53.57
2019-04-03T13:53:07.649Z,53.33
2019-04-03T13:54:11.793Z,53.24